Terminal Aerodrome Forecast
Issued by NWS

Home | Current Version | Previous Version | Text Only | Print | Product List | Glossary Off
Versions: 1 2 3 4 5 6 7 8 9 10 11 12 13 14 15 16 17 18

000
FTUS43 KGRB 281355 AAA
TAFMTW
TAF AMD
KMTW 281355Z 2814/2912 04007G14KT P6SM VCSH SCT025 BKN045
      TEMPO 2814/2818 5SM -RA BR BKN025
     FM282000 04010G15KT P6SM FEW020 BKN050
     FM290400 03007KT P6SM SCT060 BKN100=

USA.gov is the U.S. government's official web portal to all federal, state and local government web resources and services.